Time;durP1;ratioP1;P1;durP2;ratioP2;P2;SDS_P1;SDS_P2;PMS_P1;PMS_P2;Temp;Humidity;BMP_temperature;BMP_pressure;BME280_temperature;BME280_humidity;BME280_pressure;Samples;Min_cycle;Max_cycle;Signal;HPM_P1;HPM_P2
2023/02/18 00:00:26;;;;;;;45.75;26.38;;;9.80;99.90;;;;;;5009311;28;20461;-81
2023/02/18 00:02:54;;;;;;;53.28;28.90;;;9.80;99.90;;;;;;4987707;28;20490;-81
2023/02/18 00:05:20;;;;;;;56.40;28.48;;;9.80;99.90;;;;;;5001249;28;20022;-84
2023/02/18 00:07:46;;;;;;;57.60;30.67;;;9.80;99.90;;;;;;5018641;28;20390;-82
2023/02/18 00:10:14;;;;;;;49.20;26.50;;;9.80;99.90;;;;;;4999660;28;20033;-81
2023/02/18 00:12:40;;;;;;;50.55;27.92;;;9.80;99.90;;;;;;4989445;28;20034;-85
2023/02/18 00:15:06;;;;;;;58.95;29.20;;;9.80;99.90;;;;;;5005301;28;20062;-83
2023/02/18 00:17:32;;;;;;;44.22;25.25;;;9.80;99.90;;;;;;5008819;28;20390;-81
2023/02/18 00:19:58;;;;;;;51.92;26.83;;;9.70;99.90;;;;;;5004125;28;20030;-81
2023/02/18 00:22:24;;;;;;;62.65;30.52;;;9.80;99.90;;;;;;5001783;28;20053;-81
2023/02/18 00:24:50;;;;;;;57.67;28.48;;;9.80;99.90;;;;;;4992665;28;20037;-81
2023/02/18 00:27:16;;;;;;;47.35;25.50;;;9.80;99.90;;;;;;5002240;28;20021;-81
2023/02/18 00:29:42;;;;;;;56.53;29.70;;;9.70;99.90;;;;;;4991939;28;20038;-82
2023/02/18 00:32:07;;;;;;;58.60;28.60;;;9.80;99.90;;;;;;4999237;28;20040;-81
2023/02/18 00:34:34;;;;;;;62.90;31.02;;;9.80;99.90;;;;;;4983604;28;20026;-84
2023/02/18 00:37:02;;;;;;;59.53;29.45;;;9.70;99.90;;;;;;5002274;28;20034;-80
2023/02/18 00:39:28;;;;;;;62.42;27.60;;;9.70;99.90;;;;;;5010480;28;20017;-82
2023/02/18 00:41:54;;;;;;;57.03;27.60;;;9.80;99.90;;;;;;5008147;28;20402;-83
2023/02/18 00:44:20;;;;;;;67.97;29.52;;;9.70;99.90;;;;;;5009664;28;20047;-81
2023/02/18 00:46:47;;;;;;;63.80;28.60;;;9.70;99.90;;;;;;4993218;28;20022;-81
2023/02/18 00:49:12;;;;;;;63.35;30.33;;;9.80;99.90;;;;;;4987597;28;20078;-81
2023/02/18 00:51:40;;;;;;;59.50;29.60;;;9.80;99.90;;;;;;4992066;28;20036;-82
2023/02/18 00:54:06;;;;;;;65.90;30.58;;;9.80;99.90;;;;;;4986310;28;20106;-81
2023/02/18 00:56:32;;;;;;;60.67;27.83;;;9.80;99.90;;;;;;5033802;28;20081;-85
2023/02/18 00:58:58;;;;;;;57.25;28.90;;;9.80;99.90;;;;;;5049133;28;20028;-82
2023/02/18 01:01:24;;;;;;;54.75;27.40;;;9.80;99.90;;;;;;5022410;28;20025;-82
2023/02/18 01:03:50;;;;;;;50.70;26.08;;;9.80;99.90;;;;;;5043247;28;20387;-81
2023/02/18 01:06:15;;;;;;;50.60;26.73;;;9.80;99.90;;;;;;5028050;28;20393;-81
2023/02/18 01:08:42;;;;;;;55.58;29.40;;;9.80;99.90;;;;;;5032141;28;20036;-83
2023/02/18 01:11:09;;;;;;;52.13;27.52;;;9.80;99.90;;;;;;5049133;28;20507;-82
2023/02/18 01:13:35;;;;;;;59.22;29.13;;;9.80;99.90;;;;;;5036903;28;20481;-82
2023/02/18 01:16:01;;;;;;;58.00;29.42;;;9.90;99.90;;;;;;5030063;28;20029;-85
2023/02/18 01:18:29;;;;;;;60.03;30.38;;;9.90;99.90;;;;;;5037676;28;20060;-84
2023/02/18 01:20:55;;;;;;;59.85;30.42;;;9.90;99.90;;;;;;5062206;28;20017;-81
2023/02/18 01:23:22;;;;;;;56.00;28.23;;;9.90;99.90;;;;;;5025161;28;20089;-81
2023/02/18 01:25:47;;;;;;;52.58;27.35;;;9.90;99.90;;;;;;5028872;28;20393;-81
2023/02/18 01:28:14;;;;;;;48.08;24.73;;;9.90;99.90;;;;;;5059177;28;20377;-82
2023/02/18 01:30:40;;;;;;;60.50;32.10;;;9.90;99.90;;;;;;5023447;28;20509;-83
2023/02/18 01:33:06;;;;;;;58.78;29.20;;;9.90;99.90;;;;;;5040437;28;20032;-82
2023/02/18 01:35:32;;;;;;;63.80;31.33;;;10.00;99.90;;;;;;5045681;28;20028;-82
2023/02/18 01:37:58;;;;;;;68.50;35.03;;;10.00;99.90;;;;;;5033683;28;20028;-82
2023/02/18 01:40:28;;;;;;;58.60;29.85;;;10.00;99.90;;;;;;5027458;28;20025;-81
2023/02/18 01:42:54;;;;;;;63.90;30.92;;;10.00;99.90;;;;;;5051748;28;20055;-82
2023/02/18 01:45:32;;;;;;;59.85;30.48;;;10.00;99.90;;;;;;5028015;28;20017;-81
2023/02/18 01:48:12;;;;;;;57.03;27.73;;;10.00;99.90;;;;;;5058691;28;20028;-80
2023/02/18 01:50:40;;;;;;;;;;;10.00;99.90;;;;;;5051673;28;20032;-83
2023/02/18 01:53:07;;;;;;;63.70;30.90;;;10.00;99.90;;;;;;5061351;28;19909;-81
2023/02/18 01:55:34;;;;;;;68.10;33.45;;;10.00;99.90;;;;;;5030368;28;20076;-81
2023/02/18 01:58:01;;;;;;;68.07;32.13;;;10.00;99.90;;;;;;5038010;28;20029;-81
2023/02/18 02:00:28;;;;;;;66.43;34.28;;;10.00;99.90;;;;;;5044944;28;20120;-81
2023/02/18 02:02:54;;;;;;;69.00;33.50;;;10.00;99.90;;;;;;5027233;28;20480;-82
2023/02/18 02:05:21;;;;;;;60.58;30.35;;;10.00;99.90;;;;;;5045721;28;20020;-81
2023/02/18 02:07:51;;;;;;;69.88;34.58;;;10.00;99.90;;;;;;5034489;28;20024;-81
2023/02/18 02:10:18;;;;;;;65.28;31.13;;;10.00;99.90;;;;;;5045950;28;20025;-81
2023/02/18 02:13:06;;;;;;;63.33;33.05;;;10.00;99.90;;;;;;5061727;28;20029;-80
2023/02/18 02:15:55;;;;;;;70.82;35.05;;;10.00;99.90;;;;;;5041938;28;20025;-81
2023/02/18 02:18:39;;;;;;;60.35;30.75;;;10.00;99.90;;;;;;5031358;28;20109;-81
2023/02/18 02:21:11;;;;;;;59.13;30.70;;;10.00;99.90;;;;;;5044737;28;20020;-81
2023/02/18 02:23:58;;;;;;;72.25;33.38;;;10.00;99.90;;;;;;5045752;28;20036;-81
2023/02/18 02:26:58;;;;;;;61.28;30.95;;;10.00;99.90;;;;;;5028362;28;20087;-81
2023/02/18 02:29:38;;;;;;;65.13;32.80;;;10.00;99.90;;;;;;5031471;28;20354;-82
2023/02/18 02:32:29;;;;;;;60.85;30.73;;;9.90;99.90;;;;;;5061745;28;20036;-82
2023/02/18 02:34:57;;;;;;;;;;;9.90;99.90;;;;;;5047357;28;20017;-82
2023/02/18 02:37:38;;;;;;;60.60;28.00;;;9.90;99.90;;;;;;5055561;28;19909;-81
2023/02/18 02:40:13;;;;;;;53.35;26.35;;;9.90;99.90;;;;;;5049775;28;20021;-81
2023/02/18 02:42:57;;;;;;;54.33;26.70;;;9.90;99.90;;;;;;5039708;28;20393;-82
2023/02/18 02:45:38;;;;;;;58.40;30.30;;;9.90;99.90;;;;;;5059901;28;20065;-80
2023/02/18 02:48:31;;;;;;;51.38;26.33;;;9.90;99.90;;;;;;5025301;28;20025;-81
2023/02/18 02:51:06;;;;;;;51.47;25.23;;;10.00;99.90;;;;;;5027825;28;20033;-82
2023/02/18 02:53:35;;;;;;;57.97;28.60;;;10.00;99.90;;;;;;5030912;28;20151;-81
2023/02/18 02:56:02;;;;;;;51.97;25.05;;;10.00;99.90;;;;;;5050805;28;20048;-81
2023/02/18 02:58:28;;;;;;;55.55;28.02;;;10.10;99.90;;;;;;5043527;28;20108;-80
2023/02/18 03:01:33;;;;;;;58.30;29.08;;;10.10;99.90;;;;;;5034535;28;20116;-80
2023/02/18 03:04:19;;;;;;;57.78;29.58;;;10.10;99.90;;;;;;5040583;28;20048;-80
2023/02/18 03:06:46;;;;;;;53.13;26.58;;;10.10;99.90;;;;;;5056974;28;20044;-80
2023/02/18 03:09:46;;;;;;;48.75;25.65;;;10.10;99.90;;;;;;5060934;28;20025;-81
2023/02/18 03:12:14;;;;;;;;;;;10.10;99.90;;;;;;5046844;28;20025;-80
2023/02/18 03:14:55;;;;;;;51.42;24.98;;;10.10;99.90;;;;;;5046227;28;19923;-81
2023/02/18 03:17:28;;;;;;;54.90;25.75;;;10.20;99.90;;;;;;5047490;28;20044;-81
2023/02/18 03:20:05;;;;;;;57.28;28.95;;;10.20;99.90;;;;;;5046787;28;20041;-82
2023/02/18 03:22:36;;;;;;;55.90;27.95;;;10.20;99.90;;;;;;5054891;28;20024;-82
2023/02/18 03:25:03;;;;;;;50.30;25.20;;;10.20;99.90;;;;;;5041763;28;20024;-80
2023/02/18 03:27:39;;;;;;;40.05;21.75;;;10.20;99.90;;;;;;5058098;28;20021;-80
2023/02/18 03:30:19;;;;;;;47.90;24.33;;;10.20;99.90;;;;;;5045237;28;20029;-80
2023/02/18 03:32:48;;;;;;;44.90;21.48;;;10.20;99.90;;;;;;5041330;28;20025;-80
2023/02/18 03:35:18;;;;;;;40.78;21.05;;;10.20;99.90;;;;;;5041541;28;20056;-81
2023/02/18 03:37:53;;;;;;;52.65;25.05;;;10.20;99.90;;;;;;5040482;28;20155;-81
2023/02/18 03:40:21;;;;;;;47.15;23.00;;;10.30;99.90;;;;;;5028608;28;20120;-81
2023/02/18 03:42:46;;;;;;;42.85;22.13;;;10.30;99.90;;;;;;5028862;28;20258;-80
2023/02/18 03:45:12;;;;;;;38.22;19.98;;;10.30;99.90;;;;;;5056478;28;20443;-80
2023/02/18 03:47:40;;;;;;;31.73;16.58;;;10.20;99.90;;;;;;5045034;28;20469;-81
2023/02/18 03:50:07;;;;;;;26.08;14.73;;;10.20;99.90;;;;;;5031161;28;20102;-79
2023/02/18 03:52:35;;;;;;;23.35;12.32;;;10.20;99.90;;;;;;5059778;28;20028;-81
2023/02/18 03:55:02;;;;;;;28.23;15.38;;;10.20;99.90;;;;;;5044737;28;20052;-80
2023/02/18 03:57:29;;;;;;;22.30;13.02;;;10.20;99.90;;;;;;5047957;28;20507;-81
2023/02/18 03:59:55;;;;;;;35.20;19.13;;;10.20;99.90;;;;;;5047933;28;20025;-82
2023/02/18 04:02:20;;;;;;;28.35;15.63;;;10.30;99.90;;;;;;5060724;28;20103;-82
2023/02/18 04:04:46;;;;;;;30.40;17.48;;;10.20;99.90;;;;;;5061995;28;20040;-81
2023/02/18 04:07:12;;;;;;;29.95;15.40;;;10.20;99.90;;;;;;5058769;28;20025;-81
2023/02/18 04:09:38;;;;;;;26.17;14.57;;;10.20;99.90;;;;;;5062688;28;20076;-81
2023/02/18 04:12:04;;;;;;;25.02;13.18;;;10.20;99.90;;;;;;5065566;28;20098;-81
2023/02/18 04:14:30;;;;;;;33.38;17.23;;;10.20;99.90;;;;;;5049158;28;20107;-80
2023/02/18 04:16:56;;;;;;;25.13;14.23;;;10.20;99.90;;;;;;5050007;28;20087;-80
2023/02/18 04:19:21;;;;;;;29.55;14.23;;;10.20;99.90;;;;;;5032143;28;20016;-81
2023/02/18 04:21:47;;;;;;;26.48;13.68;;;10.20;99.90;;;;;;5047369;28;20048;-81
2023/02/18 04:24:13;;;;;;;21.30;11.90;;;10.20;99.90;;;;;;5049830;28;20078;-81
2023/02/18 04:26:38;;;;;;;21.50;10.60;;;10.20;99.90;;;;;;5060633;28;20025;-81
2023/02/18 04:29:04;;;;;;;22.85;11.18;;;10.10;99.90;;;;;;5050234;28;20106;-81
2023/02/18 04:31:30;;;;;;;19.38;10.55;;;10.10;99.90;;;;;;5045932;28;20064;-81
2023/02/18 04:33:55;;;;;;;22.95;11.05;;;10.20;99.90;;;;;;5061707;28;20056;-81
2023/02/18 04:36:21;;;;;;;19.10;9.82;;;10.10;99.90;;;;;;5050443;28;20176;-82
2023/02/18 04:38:47;;;;;;;16.80;8.88;;;10.10;99.90;;;;;;5050967;28;20055;-82
2023/02/18 04:41:12;;;;;;;18.98;9.27;;;10.10;99.90;;;;;;5060125;28;20115;-82
2023/02/18 04:43:38;;;;;;;15.23;8.38;;;10.20;99.90;;;;;;5045389;28;20071;-81
2023/02/18 04:46:04;;;;;;;14.40;6.72;;;10.10;99.90;;;;;;5045506;28;20053;-81
2023/02/18 04:48:30;;;;;;;13.68;6.63;;;10.10;99.90;;;;;;5047480;28;20024;-81
2023/02/18 04:50:55;;;;;;;13.57;6.97;;;10.10;99.90;;;;;;5062401;28;20032;-82
2023/02/18 04:53:21;;;;;;;13.82;5.70;;;10.10;99.90;;;;;;5045775;28;20028;-81
2023/02/18 04:55:51;;;;;;;8.85;5.22;;;10.10;99.90;;;;;;5068629;28;20044;-81
2023/02/18 04:58:17;;;;;;;;;;;10.10;99.90;;;;;;5056134;28;20036;-82
2023/02/18 05:00:43;;;;;;;9.48;4.28;;;10.10;99.90;;;;;;5029143;28;19920;-81
2023/02/18 05:03:09;;;;;;;7.32;3.55;;;10.10;99.90;;;;;;5047800;28;20041;-82
2023/02/18 05:05:34;;;;;;;9.40;4.53;;;10.10;99.90;;;;;;5047492;28;20036;-82
2023/02/18 05:08:00;;;;;;;6.82;3.42;;;10.10;99.90;;;;;;5027933;28;20136;-81
2023/02/18 05:10:26;;;;;;;5.50;3.03;;;10.10;99.90;;;;;;5048879;28;20047;-81
2023/02/18 05:12:52;;;;;;;7.22;3.65;;;10.10;99.90;;;;;;5044084;28;20048;-81
2023/02/18 05:15:18;;;;;;;8.77;3.92;;;10.20;99.90;;;;;;5043390;28;20029;-82
2023/02/18 05:17:43;;;;;;;5.43;3.17;;;10.10;99.90;;;;;;5048264;28;20279;-82
2023/02/18 05:20:10;;;;;;;4.85;2.60;;;10.10;99.90;;;;;;5024573;28;20025;-81
2023/02/18 05:22:37;;;;;;;6.03;2.67;;;10.10;99.90;;;;;;5037077;28;20029;-81
2023/02/18 05:25:03;;;;;;;4.82;2.28;;;10.10;99.90;;;;;;5026521;28;20091;-81
2023/02/18 05:27:29;;;;;;;6.55;3.72;;;10.10;99.90;;;;;;5035524;28;20025;-81
2023/02/18 05:29:54;;;;;;;5.72;3.00;;;10.10;99.90;;;;;;5059919;28;20403;-80
2023/02/18 05:32:20;;;;;;;4.80;2.45;;;10.10;99.90;;;;;;5046840;28;20036;-82
2023/02/18 05:34:46;;;;;;;4.85;2.30;;;10.10;99.90;;;;;;5058280;28;20016;-83
2023/02/18 05:37:13;;;;;;;4.70;2.00;;;10.10;99.90;;;;;;5031249;28;20055;-82
2023/02/18 05:39:39;;;;;;;6.78;3.28;;;10.20;99.90;;;;;;5036959;28;20021;-82
2023/02/18 05:42:05;;;;;;;6.25;3.08;;;10.10;99.90;;;;;;5054219;28;20434;-81
2023/02/18 05:44:32;;;;;;;5.50;2.40;;;10.10;99.90;;;;;;5024896;28;20064;-81
2023/02/18 05:47:06;;;;;;;4.32;2.28;;;10.10;99.90;;;;;;5055976;28;20318;-82
2023/02/18 05:49:32;;;;;;;5.35;3.00;;;10.10;99.90;;;;;;5059224;28;20034;-81
2023/02/18 05:51:59;;;;;;;4.20;1.88;;;10.10;99.90;;;;;;5043830;28;20059;-81
2023/02/18 05:54:26;;;;;;;4.57;2.20;;;10.10;99.90;;;;;;5045603;28;20120;-81
2023/02/18 05:56:52;;;;;;;5.80;2.75;;;10.10;99.90;;;;;;5080288;28;20082;-81
2023/02/18 05:59:18;;;;;;;5.68;3.35;;;10.10;99.90;;;;;;5057697;28;20447;-81
2023/02/18 06:01:44;;;;;;;4.10;2.22;;;10.10;99.90;;;;;;5064930;28;20115;-82
2023/02/18 06:04:10;;;;;;;7.13;4.07;;;10.10;99.90;;;;;;5075119;28;20036;-81
2023/02/18 06:06:36;;;;;;;6.57;3.40;;;10.10;99.90;;;;;;5050701;28;20102;-82
2023/02/18 06:09:04;;;;;;;5.80;3.03;;;10.10;99.90;;;;;;5056927;28;20033;-82
2023/02/18 06:11:30;;;;;;;6.68;3.72;;;10.10;99.90;;;;;;5055668;28;20504;-82
2023/02/18 06:13:56;;;;;;;6.68;3.72;;;10.10;99.90;;;;;;5075426;28;20060;-82
2023/02/18 06:16:21;;;;;;;4.82;3.00;;;10.10;99.90;;;;;;5062260;28;20091;-80
2023/02/18 06:18:47;;;;;;;4.93;2.65;;;10.10;99.90;;;;;;5081968;28;20035;-82
2023/02/18 06:21:13;;;;;;;6.32;3.50;;;10.10;99.90;;;;;;5063647;28;20074;-82
2023/02/18 06:23:38;;;;;;;5.70;3.15;;;10.10;99.90;;;;;;5078317;28;20068;-81
2023/02/18 06:26:04;;;;;;;6.22;3.13;;;10.10;99.90;;;;;;5054591;28;20070;-80
2023/02/18 06:28:30;;;;;;;4.45;2.30;;;10.10;99.90;;;;;;5053205;28;20028;-80
2023/02/18 06:30:55;;;;;;;5.05;2.72;;;10.10;99.90;;;;;;5065926;28;20028;-82
2023/02/18 06:33:21;;;;;;;6.65;3.65;;;10.10;99.90;;;;;;5064741;28;20115;-82
2023/02/18 06:35:55;;;;;;;6.50;3.63;;;10.10;99.90;;;;;;5062494;28;20464;-81
2023/02/18 06:38:21;;;;;;;6.43;3.28;;;10.10;99.90;;;;;;5063059;28;20120;-82
2023/02/18 06:40:47;;;;;;;7.28;3.95;;;10.10;99.90;;;;;;5050414;28;20127;-82
2023/02/18 06:43:13;;;;;;;6.57;3.90;;;10.10;99.90;;;;;;5063315;28;20020;-81
2023/02/18 06:45:39;;;;;;;6.18;3.85;;;10.10;99.90;;;;;;5057198;28;20040;-82
2023/02/18 06:48:05;;;;;;;6.20;2.97;;;10.10;99.90;;;;;;5069021;28;20028;-81
2023/02/18 06:50:31;;;;;;;5.63;3.63;;;10.10;99.90;;;;;;5076176;28;20028;-81
2023/02/18 06:52:58;;;;;;;5.70;3.00;;;10.10;99.90;;;;;;5063115;28;20431;-81
2023/02/18 06:55:24;;;;;;;4.50;2.38;;;10.10;99.90;;;;;;5049382;28;20170;-81
2023/02/18 06:57:49;;;;;;;7.50;4.03;;;10.10;99.90;;;;;;5077884;28;20111;-81
2023/02/18 07:00:15;;;;;;;5.68;3.58;;;10.00;99.90;;;;;;5078176;28;20025;-81
2023/02/18 07:02:41;;;;;;;5.25;2.88;;;10.00;99.90;;;;;;5047894;28;20028;-82
2023/02/18 07:05:07;;;;;;;7.68;4.75;;;10.00;99.90;;;;;;5064538;28;20031;-80
2023/02/18 07:07:33;;;;;;;6.45;3.65;;;10.00;99.90;;;;;;5046443;28;20107;-82
2023/02/18 07:09:58;;;;;;;5.75;3.60;;;10.00;99.90;;;;;;5064553;28;20028;-81
2023/02/18 07:12:24;;;;;;;5.75;3.20;;;10.00;99.90;;;;;;5070497;28;20040;-82
2023/02/18 07:14:50;;;;;;;5.63;2.78;;;10.00;99.90;;;;;;5063058;28;20024;-81
2023/02/18 07:17:16;;;;;;;5.97;2.92;;;10.00;99.90;;;;;;5069049;28;20025;-81
2023/02/18 07:19:41;;;;;;;5.40;2.88;;;10.00;99.90;;;;;;5065550;28;20228;-81
2023/02/18 07:22:07;;;;;;;5.60;2.92;;;9.90;99.90;;;;;;5076218;28;20016;-82
2023/02/18 07:24:33;;;;;;;5.65;3.33;;;9.90;99.90;;;;;;5082807;28;20032;-80
2023/02/18 07:26:58;;;;;;;7.13;3.67;;;9.90;99.90;;;;;;5050936;28;20481;-82
2023/02/18 07:29:24;;;;;;;6.95;4.00;;;9.90;99.90;;;;;;5062093;28;20550;-82
2023/02/18 07:31:50;;;;;;;6.00;3.15;;;9.90;99.90;;;;;;5078325;28;20028;-81
2023/02/18 07:34:16;;;;;;;7.32;4.07;;;9.90;99.90;;;;;;5069298;28;20028;-82
2023/02/18 07:36:41;;;;;;;6.03;3.50;;;9.90;99.90;;;;;;5068994;28;20074;-81
2023/02/18 07:39:07;;;;;;;7.05;3.00;;;9.90;99.90;;;;;;5066954;28;20078;-81
2023/02/18 07:41:33;;;;;;;4.70;2.30;;;9.90;99.90;;;;;;5056658;28;20024;-81
2023/02/18 07:43:58;;;;;;;7.10;2.20;;;9.90;99.90;;;;;;5043776;28;20048;-82
2023/02/18 07:46:24;;;;;;;3.92;2.08;;;9.90;99.90;;;;;;5064690;28;20055;-82
2023/02/18 07:48:50;;;;;;;4.97;2.70;;;9.90;99.90;;;;;;5066619;28;20465;-81
2023/02/18 07:51:16;;;;;;;7.07;2.53;;;9.90;99.90;;;;;;5074499;28;20025;-82
2023/02/18 07:53:41;;;;;;;5.57;2.70;;;9.80;99.90;;;;;;5068033;28;20383;-82
2023/02/18 07:56:07;;;;;;;7.20;3.83;;;9.80;99.90;;;;;;5036935;28;20047;-82
2023/02/18 07:58:35;;;;;;;6.80;3.55;;;9.80;99.90;;;;;;5054366;28;20033;-81
2023/02/18 08:01:10;;;;;;;8.52;4.03;;;9.80;99.90;;;;;;5048010;28;20037;-81
2023/02/18 08:03:36;;;;;;;8.02;4.15;;;9.80;99.90;;;;;;5046195;28;20037;-81
2023/02/18 08:06:04;;;;;;;8.57;4.57;;;9.80;99.90;;;;;;5042042;28;20035;-81
2023/02/18 08:08:31;;;;;;;8.95;4.43;;;9.80;99.90;;;;;;5032459;28;20124;-81
2023/02/18 08:11:05;;;;;;;9.93;5.30;;;9.90;99.90;;;;;;5044492;28;20396;-81
2023/02/18 08:13:31;;;;;;;8.85;4.72;;;9.80;99.90;;;;;;5044909;28;20453;-80
2023/02/18 08:15:57;;;;;;;9.40;5.75;;;9.90;99.90;;;;;;5065576;28;20028;-81
2023/02/18 08:18:24;;;;;;;10.02;5.20;;;9.90;99.90;;;;;;5033033;28;20378;-81
2023/02/18 08:20:50;;;;;;;8.85;5.10;;;9.90;99.90;;;;;;5046449;28;20024;-82
2023/02/18 08:23:19;;;;;;;7.70;4.65;;;9.90;99.90;;;;;;5062204;28;20036;-81
2023/02/18 08:25:47;;;;;;;8.43;4.80;;;9.90;99.90;;;;;;5061693;28;20115;-82
2023/02/18 08:28:12;;;;;;;7.63;4.53;;;9.80;99.90;;;;;;5062691;28;20025;-81
2023/02/18 08:30:42;;;;;;;15.13;7.22;;;9.80;99.90;;;;;;5044926;28;20025;-81
2023/02/18 08:33:08;;;;;;;;;;;9.80;99.90;;;;;;5044803;28;20028;-80
2023/02/18 08:35:34;;;;;;;18.58;9.00;;;9.90;99.90;;;;;;5048564;28;19919;-81
2023/02/18 08:37:59;;;;;;;17.83;9.07;;;9.90;99.90;;;;;;5046245;28;20318;-81
2023/02/18 08:40:25;;;;;;;17.67;8.90;;;9.90;99.90;;;;;;5046584;28;20021;-80
2023/02/18 08:42:51;;;;;;;18.52;8.68;;;9.90;99.90;;;;;;5043623;28;22057;-81
2023/02/18 08:45:17;;;;;;;16.13;8.75;;;9.90;99.90;;;;;;5045906;28;20043;-80
2023/02/18 08:47:43;;;;;;;30.40;9.80;;;9.80;99.90;;;;;;5064298;28;20115;-81
2023/02/18 08:50:09;;;;;;;17.10;8.13;;;9.80;99.90;;;;;;5049736;28;20428;-81
2023/02/18 08:52:35;;;;;;;18.02;8.75;;;9.80;99.90;;;;;;5044855;28;20032;-83
2023/02/18 08:55:01;;;;;;;16.65;8.10;;;9.70;99.90;;;;;;5061611;28;20100;-81
2023/02/18 08:57:27;;;;;;;18.73;7.57;;;9.80;99.90;;;;;;5041802;28;20036;-81
2023/02/18 08:59:53;;;;;;;20.50;7.78;;;9.80;99.90;;;;;;5029949;28;20062;-81
2023/02/18 09:02:19;;;;;;;18.73;6.38;;;9.70;99.90;;;;;;5045735;28;20107;-81
2023/02/18 09:04:45;;;;;;;26.15;7.78;;;9.70;99.90;;;;;;5053969;28;20037;-81
2023/02/18 09:07:10;;;;;;;16.17;6.38;;;9.70;99.90;;;;;;5028066;28;20079;-81
2023/02/18 09:09:36;;;;;;;22.10;6.63;;;9.70;99.90;;;;;;5040439;28;20033;-81
2023/02/18 09:12:02;;;;;;;16.52;5.82;;;9.80;99.90;;;;;;5040045;28;20473;-80
2023/02/18 09:14:27;;;;;;;16.10;6.25;;;9.70;99.90;;;;;;5027163;28;22006;-81
2023/02/18 09:16:55;;;;;;;16.88;5.32;;;9.70;99.90;;;;;;5054773;28;20143;-82
2023/02/18 09:19:21;;;;;;;15.25;5.30;;;9.60;99.90;;;;;;5045736;28;20072;-80
2023/02/18 09:21:46;;;;;;;12.48;4.43;;;9.60;99.90;;;;;;5042227;28;20025;-80
2023/02/18 09:24:12;;;;;;;17.80;4.38;;;9.60;99.90;;;;;;5038888;28;20396;-80
2023/02/18 09:26:39;;;;;;;14.95;4.53;;;9.50;99.90;;;;;;5055893;28;20029;-80
2023/02/18 09:29:04;;;;;;;16.90;3.92;;;9.50;99.90;;;;;;5027495;28;20252;-80
2023/02/18 09:31:30;;;;;;;14.48;3.67;;;9.40;99.90;;;;;;5054936;28;20423;-82
2023/02/18 09:34:00;;;;;;;16.23;3.92;;;9.40;99.90;;;;;;5023462;28;20031;-81
2023/02/18 09:36:26;;;;;;;16.90;3.83;;;9.40;99.90;;;;;;5047957;28;20033;-81
2023/02/18 09:38:52;;;;;;;17.17;3.63;;;9.30;99.90;;;;;;5047789;28;20036;-81
2023/02/18 09:41:30;;;;;;;15.10;2.78;;;9.30;99.90;;;;;;5023798;28;20113;-81
2023/02/18 09:44:05;;;;;;;15.13;3.40;;;9.30;99.90;;;;;;5059199;28;20033;-82
2023/02/18 09:46:39;;;;;;;12.30;2.47;;;9.30;99.90;;;;;;5041294;28;20029;-82
2023/02/18 09:49:26;;;;;;;8.40;2.03;;;9.30;99.90;;;;;;5056594;28;20389;-80
2023/02/18 09:51:54;;;;;;;13.88;2.90;;;9.30;99.90;;;;;;5054529;28;20033;-82
2023/02/18 09:54:21;;;;;;;9.65;2.53;;;9.40;99.90;;;;;;5026802;28;20465;-82
2023/02/18 09:56:47;;;;;;;10.57;2.83;;;9.40;99.90;;;;;;5049718;28;20080;-80
2023/02/18 09:59:19;;;;;;;8.75;2.55;;;9.40;99.90;;;;;;5078528;28;20413;-81
2023/02/18 10:01:47;;;;;;;10.07;2.20;;;9.40;99.90;;;;;;5082235;28;20043;-80
2023/02/18 10:04:18;;;;;;;14.93;2.60;;;9.50;99.90;;;;;;5080532;28;20029;-80
2023/02/18 10:06:46;;;;;;;11.60;3.10;;;9.50;99.90;;;;;;5063283;28;20520;-80
2023/02/18 10:09:35;;;;;;;13.50;2.85;;;9.60;99.90;;;;;;5079705;28;20024;-82
2023/02/18 10:12:12;;;;;;;15.90;4.32;;;9.60;99.90;;;;;;5071992;28;20535;-80
2023/02/18 10:14:37;;;;;;;19.25;3.35;;;9.60;99.90;;;;;;5078878;28;20074;-81
2023/02/18 10:17:04;;;;;;;14.32;2.22;;;9.60;99.90;;;;;;5064550;28;20424;-80
2023/02/18 10:19:37;;;;;;;13.77;2.38;;;9.60;99.90;;;;;;5052770;28;20024;-81
2023/02/18 10:22:05;;;;;;;13.45;2.50;;;9.60;99.90;;;;;;5079424;28;20452;-80
2023/02/18 10:24:39;;;;;;;14.55;2.42;;;9.60;99.90;;;;;;5069530;28;20085;-82
2023/02/18 10:27:07;;;;;;;15.80;1.63;;;9.60;99.90;;;;;;5048601;28;20433;-79
2023/02/18 10:29:33;;;;;;;10.75;2.13;;;9.60;99.90;;;;;;5065657;28;20495;-80
2023/02/18 10:32:26;;;;;;;16.25;1.85;;;9.60;99.90;;;;;;5064160;28;20106;-81
2023/02/18 10:35:27;;;;;;;11.88;1.85;;;9.60;99.90;;;;;;5074767;28;20055;-80
2023/02/18 10:38:11;;;;;;;8.82;2.05;;;9.50;99.90;;;;;;5073400;28;20039;-81
2023/02/18 10:40:51;;;;;;;16.08;2.63;;;9.50;99.90;;;;;;5066363;28;20507;-81
2023/02/18 10:43:29;;;;;;;;;;;9.50;99.90;;;;;;5064968;28;20445;-81
2023/02/18 10:46:13;;;;;;;12.40;2.47;;;9.50;99.90;;;;;;5057583;28;19975;-80
2023/02/18 10:49:13;;;;;;;13.63;3.00;;;9.50;99.90;;;;;;5049316;28;20067;-80
2023/02/18 10:51:46;;;;;;;12.48;3.00;;;9.50;99.90;;;;;;5050740;28;20471;-80
2023/02/18 10:54:14;;;;;;;11.20;2.65;;;9.50;99.90;;;;;;5066125;28;20906;-79
2023/02/18 10:56:49;;;;;;;20.02;3.72;;;9.50;99.90;;;;;;5065906;28;20540;-80
2023/02/18 10:59:24;;;;;;;10.75;3.10;;;9.50;99.90;;;;;;5049538;28;20076;-80
2023/02/18 11:02:00;;;;;;;11.32;3.20;;;9.50;99.90;;;;;;5072523;28;20711;-80
2023/02/18 11:04:36;;;;;;;10.98;3.25;;;9.50;99.90;;;;;;5048725;28;20436;-80
2023/02/18 11:07:31;;;;;;;11.18;3.30;;;9.50;99.90;;;;;;5049041;28;20111;-80
2023/02/18 11:10:08;;;;;;;12.60;2.80;;;9.40;99.90;;;;;;5046272;28;20040;-80
2023/02/18 11:12:56;;;;;;;14.90;3.47;;;9.40;99.90;;;;;;5045027;28;20128;-80
2023/02/18 11:15:26;;;;;;;10.77;1.95;;;9.40;99.90;;;;;;5057916;28;20040;-79
2023/02/18 11:17:53;;;;;;;;;;;9.40;99.90;;;;;;5031915;28;20503;-80
2023/02/18 11:20:29;;;;;;;14.43;2.70;;;9.50;99.90;;;;;;5031675;28;20269;-80
2023/02/18 11:23:06;;;;;;;10.68;2.10;;;9.50;99.90;;;;;;5038812;28;20511;-80
2023/02/18 11:25:34;;;;;;;12.80;1.98;;;9.50;99.90;;;;;;5056578;28;20035;-80
2023/02/18 11:28:23;;;;;;;11.45;2.15;;;9.60;99.90;;;;;;5048591;28;20394;-80
2023/02/18 11:30:54;;;;;;;12.27;2.00;;;9.60;99.90;;;;;;5035401;28;20663;-80
2023/02/18 11:33:28;;;;;;;12.23;2.13;;;9.60;99.90;;;;;;5055115;28;20037;-80
2023/02/18 11:35:57;;;;;;;7.63;1.63;;;9.70;99.90;;;;;;5047059;28;20709;-80
2023/02/18 11:38:33;;;;;;;13.77;2.10;;;9.70;99.90;;;;;;5047962;28;20046;-80
2023/02/18 11:41:10;;;;;;;13.82;2.08;;;9.80;99.90;;;;;;5048551;28;20060;-80
2023/02/18 11:43:41;;;;;;;10.38;2.63;;;9.80;99.90;;;;;;5032164;28;20036;-81
2023/02/18 11:46:13;;;;;;;10.93;2.28;;;10.00;99.90;;;;;;5013369;28;20475;-80
2023/02/18 11:48:39;;;;;;;11.48;3.10;;;10.00;99.90;;;;;;5046972;28;20531;-80
2023/02/18 11:51:04;;;;;;;11.35;2.05;;;10.10;99.90;;;;;;5030302;28;20085;-80
2023/02/18 11:53:37;;;;;;;17.10;2.28;;;10.20;99.90;;;;;;5069953;28;20040;-81
2023/02/18 11:56:18;;;;;;;13.50;2.35;;;10.40;99.90;;;;;;5053443;28;20068;-81
2023/02/18 11:58:46;;;;;;;14.13;2.75;;;10.30;99.90;;;;;;5066158;28;20073;-79
2023/02/18 12:01:20;;;;;;;11.82;2.28;;;10.30;99.90;;;;;;5047444;28;20496;-81
2023/02/18 12:03:48;;;;;;;11.82;2.05;;;10.40;99.90;;;;;;5052642;28;20081;-79
2023/02/18 12:06:19;;;;;;;11.73;1.88;;;10.40;99.90;;;;;;5061435;28;20032;-80
2023/02/18 12:09:00;;;;;;;14.27;2.67;;;10.50;99.90;;;;;;5064593;28;20078;-80
2023/02/18 12:11:31;;;;;;;11.52;2.15;;;10.50;99.90;;;;;;5048254;28;20107;-80
2023/02/18 12:13:58;;;;;;;8.73;1.63;;;10.50;99.90;;;;;;5064115;28;20119;-80
2023/02/18 12:16:32;;;;;;;13.75;2.83;;;10.50;99.90;;;;;;5031004;28;20060;-80
2023/02/18 12:19:07;;;;;;;12.82;2.15;;;10.60;99.90;;;;;;5064517;28;20020;-80
2023/02/18 12:21:48;;;;;;;13.35;2.55;;;10.60;99.90;;;;;;5045935;28;20041;-79
2023/02/18 12:24:40;;;;;;;10.95;2.03;;;10.60;99.90;;;;;;5028897;28;20043;-81
2023/02/18 12:27:19;;;;;;;13.48;2.22;;;10.60;99.90;;;;;;5032635;28;20040;-80
2023/02/18 12:29:51;;;;;;;39.35;18.55;;;10.60;99.90;;;;;;5065400;28;20356;-80
2023/02/18 12:32:47;;;;;;;20.95;9.10;;;10.50;99.90;;;;;;5033595;28;20036;-80
2023/02/18 12:35:29;;;;;;;14.68;3.10;;;10.40;99.90;;;;;;5020973;28;20036;-81
2023/02/18 12:38:19;;;;;;;12.85;2.53;;;10.30;99.90;;;;;;5063043;28;20029;-80
2023/02/18 12:40:56;;;;;;;11.18;2.58;;;10.20;99.90;;;;;;5039050;28;20160;-80
2023/02/18 12:43:50;;;;;;;11.55;2.30;;;10.20;99.90;;;;;;5046289;28;20048;-83
2023/02/18 12:46:32;;;;;;;14.38;3.17;;;10.20;99.90;;;;;;5046468;27;20048;-79
2023/02/18 12:49:18;;;;;;;11.73;3.28;;;10.20;99.90;;;;;;5032908;28;20059;-81
2023/02/18 12:52:01;;;;;;;38.58;18.10;;;10.20;99.90;;;;;;5047885;28;20452;-80
2023/02/18 12:54:53;;;;;;;36.85;20.50;;;10.20;99.90;;;;;;5037266;28;20036;-79
2023/02/18 12:57:56;;;;;;;16.70;3.30;;;10.20;99.90;;;;;;5046691;28;20064;-80